EDLWEDDR

Guest
Details From EDLW - Dortmund-Wickede
To EDDR - Saarbrucken
Flight Number -
Tags generated
Created
Modified
Stats Distance 140 nm / 259 km
Max Altitude 12,500 ft / 3,810 m
Waypoints 3
Social Downloads 1
Likes 0
Share VATSIM

Download

Looking for another format? Having issues loading an existing format? Contact us
Advertisement - Login to hide

Notes

Basic altitude profile: - Ascent Rate: 2500ft/min - Ascent Speed: 160kts - Cruise Altitude: 6000ft - Cruise Speed: 180kts - Descent Rate: 1500ft/min - Descent Speed: 160kts Options: - Use NATs: yes - Use PACOTS: yes - Use low airways: yes - Use high airways: no

Route

EDLW OSMAX EDDR

ID Type Via Altitude Latitude Longitude Leg Dist Tot Dist Heading (true) Name
O EDLW APT - 0 ft / 0 m 51.51911˚ 7.61445˚ - 0 nm - Dortmund-Wickede
OSMAX FIX - 12,500 ft / 3,810 m 50.26056˚ 7.32333˚ 76 nm 76 nm 188° / 188° -
O EDDR APT - 0 ft / 0 m 49.21534˚ 7.11261˚ 63 nm 139 nm 188° / 187° Saarbrucken

Altitude Profile

Advertisement - Login to hide

EDLW

Details ICAO EDLW (DTM)
Name Dortmund-Wickede
Region Germany - Civil
Timezone Europe/Berlin (UTC+1.0)
Stats Elevation 425 ft / 130 m (AMSL)
Location 51.519107° 7.614447°
Runways 1
Magnetic Variation 2.059° E

METAR

EDLW 162220Z AUTO 26009KT 230V300 9999 // BKN009/// OVC056/// 03/01 Q1016

Decode

TAF

TAF EDLW 162150Z 1621/1718 CNL= TAF AMD EPWA 162158Z 1621/1718 24006KT 7000 BKN020 TEMPO 1622/1709 4000 BR BKN006 BKN010 PROB40 TEMPO 1622/1709 2000 -SN -SNRA BR BKN003 BECMG 1716/1718 2000 BR

Decode

Departure Runways

ID Width Length Bearing (true) Bearing (mag) Surface Threshold Offset Overrun Length
06 148 ft / 45 m 6,546 ft / 1,995 m 60.50° 58.44° Asphalt 984 ft / 300 m 197 ft / 60 m
24 148 ft / 45 m 6,546 ft / 1,995 m 240.52° 238.46° Asphalt 984 ft / 300 m 197 ft / 60 m

EDDR

Details ICAO EDDR (SCN)
Name Saarbrucken
Region Germany - Civil
Timezone Europe/Berlin (UTC+1.0)
Stats Elevation 1,057 ft / 322 m (AMSL)
Location 49.215343° 7.112610°
Runways 2
Magnetic Variation 1.955° E

METAR

EDDR 162220Z 26009KT 9999 FEW005 BKN009 02/00 Q1018

Decode

TAF

TAF EDDR 161700Z 1618/1718 26007KT 9999 SCT015 BKN030 PROB30 TEMPO 1618/1709 2000 -SHSN BKN004 BKN012TCU TEMPO 1709/1713 BKN010

Decode

Destination Runways

ID Width Length Bearing (true) Bearing (mag) Surface Threshold Offset Overrun Length
09 148 ft / 45 m 6,450 ft / 1,966 m 87.38° 85.43° Asphalt 85 ft / 26 m 0 ft / 0 m
09L 164 ft / 50 m 1,784 ft / 544 m 87.10° 85.15° Grass 0 ft / 0 m 0 ft / 0 m
27 148 ft / 45 m 6,450 ft / 1,966 m 267.40° 265.45° Asphalt 0 ft / 0 m 0 ft / 0 m
27R 164 ft / 50 m 1,784 ft / 544 m 267.10° 265.15° Grass 0 ft / 0 m 0 ft / 0 m

Approach Navaids

Runway Type Ident Frequency Range Bearing (true) Bearing (mag) Slope Elevation
27 Localiser DSB 108.70 MHz 25 nm / 46 km 267.37° 265.42° - 1,021 ft / 311 m (AMSL)
27 Glidescope DSB 108.70 MHz 10 nm / 19 km 267.39° 265.44° 3.00° 1,056 ft / 322 m (AMSL)

Popular Alternatives